Time;durP1;ratioP1;P1;durP2;ratioP2;P2;SDS_P1;SDS_P2;PMS_P1;PMS_P2;Temp;Humidity;BMP_temperature;BMP_pressure;BME280_temperature;BME280_humidity;BME280_pressure;Samples;Min_cycle;Max_cycle;Signal;HPM_P1;HPM_P2
2022/04/16 00:01:13;;;;;;;15.60;6.00;;;;;;;6.86;100.00;102300.66;5162352;28;20150;-78
2022/04/16 00:03:45;;;;;;;14.15;5.70;;;;;;;6.85;100.00;102298.91;5183001;28;20087;-78
2022/04/16 00:06:15;;;;;;;12.68;5.55;;;;;;;6.76;100.00;102309.25;5188701;28;20033;-78
2022/04/16 00:08:46;;;;;;;15.88;6.70;;;;;;;6.73;100.00;102309.25;5187569;28;20030;-77
2022/04/16 00:11:16;;;;;;;11.70;5.28;;;;;;;6.72;100.00;102310.06;5187465;28;20029;-78
2022/04/16 00:13:50;;;;;;;13.10;5.97;;;;;;;6.73;100.00;102309.25;5187806;28;20309;-78
2022/04/16 00:16:20;;;;;;;14.52;5.72;;;;;;;6.74;100.00;102306.63;5179640;28;20116;-78
2022/04/16 00:18:51;;;;;;;12.23;5.38;;;;;;;6.68;100.00;102303.13;5170095;28;20054;-78
2022/04/16 00:21:22;;;;;;;12.52;5.53;;;;;;;6.66;100.00;102308.31;5162876;28;20125;-78
2022/04/16 00:23:53;;;;;;;14.65;5.10;;;;;;;6.85;100.00;102304.13;5164564;28;20124;-77
2022/04/16 00:26:23;;;;;;;12.65;5.22;;;;;;;6.79;100.00;102314.47;5163957;28;20030;-78
2022/04/16 00:28:53;;;;;;;12.90;5.50;;;;;;;6.72;100.00;102310.06;5174368;28;20109;-78
2022/04/16 00:31:25;;;;;;;12.18;5.63;;;;;;;6.70;100.00;102315.28;5171852;28;20037;-76
2022/04/16 00:33:56;;;;;;;14.27;5.22;;;;;;;6.72;100.00;102313.56;5154455;28;20112;-77
2022/04/16 00:36:26;;;;;;;13.52;5.07;;;;;;;6.63;100.00;102307.41;5171017;28;20018;-77
2022/04/16 00:38:56;;;;;;;11.23;5.13;;;;;;;6.55;100.00;102314.25;5172136;28;20106;-76
2022/04/16 00:41:27;;;;;;;10.43;4.75;;;;;;;6.44;100.00;102311.56;5169889;28;20037;-77
2022/04/16 00:43:57;;;;;;;11.57;4.68;;;;;;;6.50;100.00;102310.75;5173037;28;20025;-76
2022/04/16 00:46:27;;;;;;;14.50;5.65;;;;;;;6.46;100.00;102314.19;5171082;28;20030;-77
2022/04/16 00:48:58;;;;;;;14.70;5.13;;;;;;;6.37;100.00;102320.19;5174738;28;20111;-77
2022/04/16 00:51:29;;;;;;;10.65;4.63;;;;;;;6.42;100.00;102317.63;5168673;28;20052;-78
2022/04/16 00:54:00;;;;;;;8.52;4.45;;;;;;;6.44;100.00;102321.09;5172689;28;20435;-79
2022/04/16 00:56:30;;;;;;;13.93;4.40;;;;;;;6.36;100.00;102326.22;5169424;28;20066;-78
2022/04/16 00:59:01;;;;;;;13.38;4.50;;;;;;;6.36;100.00;102338.31;5166581;28;20023;-77
2022/04/16 01:01:32;;;;;;;11.02;4.85;;;;;;;6.30;100.00;102339.16;5175385;28;20298;-77
2022/04/16 01:04:02;;;;;;;10.73;4.28;;;;;;;6.29;100.00;102341.72;5170515;28;20057;-78
2022/04/16 01:06:40;;;;;;;9.18;4.13;;;;;;;6.28;100.00;102327.00;5173598;28;20510;-78
2022/04/16 01:09:10;;;;;;;6.70;3.72;;;;;;;6.11;100.00;102341.53;5170396;28;20492;-77
2022/04/16 01:11:41;;;;;;;11.35;3.33;;;;;;;6.12;100.00;102332.91;5172496;28;20084;-78
2022/04/16 01:14:11;;;;;;;5.78;3.17;;;;;;;6.09;100.00;102348.44;5174416;28;20028;-77
2022/04/16 01:16:42;;;;;;;9.55;3.28;;;;;;;6.10;100.00;102334.63;5163206;28;20027;-77
2022/04/16 01:19:13;;;;;;;5.82;2.63;;;;;;;5.93;100.00;102351.72;5168461;28;20040;-77
2022/04/16 01:21:43;;;;;;;5.30;2.55;;;;;;;5.75;100.00;102356.66;5168385;28;20029;-78
2022/04/16 01:24:14;;;;;;;6.50;2.80;;;;;;;5.67;100.00;102358.25;5168901;28;20036;-76
2022/04/16 01:26:44;;;;;;;5.25;2.20;;;;;;;5.45;100.00;102361.44;5169199;28;20053;-77
2022/04/16 01:29:15;;;;;;;6.93;2.65;;;;;;;5.42;100.00;102361.41;5167209;28;20081;-76
2022/04/16 01:31:45;;;;;;;5.90;2.58;;;;;;;5.31;100.00;102378.50;5167837;28;20030;-77
2022/04/16 01:34:17;;;;;;;5.97;2.58;;;;;;;5.14;100.00;102376.53;5146855;28;20444;-78
2022/04/16 01:36:48;;;;;;;6.20;2.45;;;;;;;5.08;100.00;102385.09;5168517;28;20026;-77
2022/04/16 01:39:19;;;;;;;7.45;2.45;;;;;;;4.99;100.00;102389.25;5169297;28;20472;-76
2022/04/16 01:41:49;;;;;;;5.90;2.60;;;;;;;4.90;100.00;102400.34;5170206;28;20061;-76
2022/04/16 01:44:20;;;;;;;6.78;2.33;;;;;;;4.87;100.00;102392.53;5168812;28;20097;-78
2022/04/16 01:46:51;;;;;;;6.03;2.50;;;;;;;4.90;100.00;102389.97;5173057;28;20025;-76
2022/04/16 01:49:21;;;;;;;4.65;2.60;;;;;;;4.69;100.00;102397.41;5172894;28;20554;-76
2022/04/16 01:51:51;;;;;;;6.28;2.15;;;;;;;4.92;100.00;102388.28;5182261;28;20048;-76
2022/04/16 01:54:21;;;;;;;7.13;2.50;;;;;;;4.58;100.00;102396.31;5182329;28;20021;-76
2022/04/16 01:56:52;;;;;;;6.88;2.67;;;;;;;4.47;100.00;102391.81;5181674;28;20492;-77
2022/04/16 01:59:23;;;;;;;6.88;3.13;;;;;;;4.40;100.00;102400.28;5182105;28;20026;-78
2022/04/16 02:01:56;;;;;;;4.55;2.45;;;;;;;4.39;100.00;102399.44;5170699;28;20045;-77
2022/04/16 02:04:26;;;;;;;7.03;2.70;;;;;;;4.34;100.00;102403.66;5179804;28;20105;-77
2022/04/16 02:06:56;;;;;;;8.10;2.50;;;;;;;4.28;100.00;102406.09;5182147;28;20108;-77
2022/04/16 02:09:27;;;;;;;6.05;2.80;;;;;;;4.27;100.00;102404.38;5182066;28;20495;-76
2022/04/16 02:11:57;;;;;;;5.78;2.97;;;;;;;4.27;100.00;102399.19;5181584;28;20483;-77
2022/04/16 02:14:28;;;;;;;8.07;2.60;;;;;;;4.32;100.00;102401.88;5182737;28;20038;-76
2022/04/16 02:16:59;;;;;;;6.20;2.60;;;;;;;4.18;100.00;102411.97;5174805;28;20090;-78
2022/04/16 02:19:29;;;;;;;4.85;2.50;;;;;;;4.19;100.00;102418.00;5174779;28;20017;-76
2022/04/16 02:22:00;;;;;;;4.55;2.40;;;;;;;4.35;100.00;102428.69;5164229;28;20030;-78
2022/04/16 02:24:30;;;;;;;6.95;3.10;;;;;;;4.57;100.00;102436.00;5181675;28;20037;-77
2022/04/16 02:27:00;;;;;;;8.63;2.50;;;;;;;4.09;100.00;102424.72;5181913;28;20026;-77
2022/04/16 02:29:31;;;;;;;5.13;2.42;;;;;;;3.87;100.00;102432.88;5181647;28;20042;-77
2022/04/16 02:32:03;;;;;;;5.15;2.47;;;;;;;3.88;100.00;102429.44;5171172;28;20030;-77
2022/04/16 02:34:33;;;;;;;5.13;2.45;;;;;;;3.85;100.00;102424.22;5178160;28;20061;-78
2022/04/16 02:37:04;;;;;;;5.72;2.65;;;;;;;3.69;100.00;102432.47;5181090;28;20030;-77
2022/04/16 02:39:34;;;;;;;5.75;2.45;;;;;;;3.59;100.00;102434.84;5164219;28;20018;-77
2022/04/16 02:42:05;;;;;;;5.75;2.55;;;;;;;3.54;100.00;102428.66;5180275;28;20080;-78
2022/04/16 02:47:24;;;;;;;5.03;2.50;;;;;;;3.51;100.00;102440.69;5165215;28;20113;-76
2022/04/16 02:49:54;;;;;;;6.45;2.50;;;;;;;3.58;100.00;102445.13;5173030;28;20109;-77
2022/04/16 02:52:25;;;;;;;6.03;2.58;;;;;;;3.66;100.00;102447.03;5180994;28;20121;-76
2022/04/16 02:54:55;;;;;;;6.57;2.60;;;;;;;3.41;100.00;102449.03;5181547;28;20022;-76
2022/04/16 02:57:25;;;;;;;4.47;2.58;;;;;;;3.48;100.00;102450.91;5180906;28;20492;-76
2022/04/16 02:59:55;;;;;;;4.05;2.35;;;;;;;3.34;100.00;102444.59;5181157;28;20375;-77
2022/04/16 03:02:26;;;;;;;3.47;2.10;;;;;;;3.51;100.00;102448.44;5168678;28;20049;-76
2022/04/16 03:04:56;;;;;;;3.88;2.30;;;;;;;3.54;100.00;102457.09;5180285;28;20026;-77
2022/04/16 03:07:26;;;;;;;5.28;2.20;;;;;;;3.45;100.00;102456.91;5183062;28;20050;-77
2022/04/16 03:09:57;;;;;;;5.93;2.47;;;;;;;3.22;100.00;102458.06;5196678;22;20030;-75
2022/04/16 03:12:28;;;;;;;4.05;2.30;;;;;;;3.24;100.00;102460.69;5194711;28;20064;-76
2022/04/16 03:17:47;;;;;;;6.93;2.10;;;;;;;3.15;100.00;102457.88;5214101;28;20039;-77
2022/04/16 03:20:18;;;;;;;7.13;2.47;;;;;;;3.06;100.00;102465.41;5213285;28;20116;-76
2022/04/16 03:22:48;;;;;;;3.75;1.85;;;;;;;2.99;100.00;102459.22;5215778;28;20021;-76
2022/04/16 03:25:18;;;;;;;4.95;2.10;;;;;;;3.08;100.00;102474.06;5212188;28;20087;-77
2022/04/16 03:27:49;;;;;;;5.55;2.13;;;;;;;3.02;100.00;102484.25;5215957;28;20493;-77
2022/04/16 03:30:19;;;;;;;6.45;2.30;;;;;;;3.25;100.00;102484.00;5212245;28;20438;-76
2022/04/16 03:32:51;;;;;;;6.70;2.58;;;;;;;3.10;100.00;102475.84;5195475;28;20021;-76
2022/04/16 03:35:23;;;;;;;5.82;2.25;;;;;;;3.07;100.00;102480.94;5208108;28;20061;-76
2022/04/16 03:37:55;;;;;;;5.95;2.05;;;;;;;3.00;100.00;102480.75;5197839;28;20033;-77
2022/04/16 03:40:26;;;;;;;5.18;2.40;;;;;;;2.92;100.00;102477.09;5212094;28;20036;-76
2022/04/16 03:43:00;;;;;;;6.88;2.15;;;;;;;2.85;100.00;102485.53;5214932;28;20021;-75
2022/04/16 03:45:33;;;;;;;5.07;2.50;;;;;;;2.85;100.00;102480.38;5213068;28;20049;-76
2022/04/16 03:48:05;;;;;;;5.70;2.60;;;;;;;2.88;100.00;102485.59;5212893;28;20036;-77
2022/04/16 03:50:36;;;;;;;4.88;2.22;;;;;;;2.79;100.00;102490.50;5212964;28;20022;-76
2022/04/16 03:53:07;;;;;;;5.13;2.30;;;;;;;2.90;100.00;102499.41;5213181;28;20387;-75
2022/04/16 04:01:15;;;;;;;8.23;2.03;;;;;;;3.13;100.00;102482.78;5211432;28;20029;-74
2022/04/16 04:03:46;;;;;;;5.72;2.20;;;;;;;3.15;100.00;102496.59;5213025;28;20025;-76
2022/04/16 04:06:17;;;;;;;4.13;2.10;;;;;;;3.18;100.00;102497.56;5214555;28;20029;-77
2022/04/16 04:08:47;;;;;;;3.42;1.80;;;;;;;3.31;100.00;102504.78;5211538;28;20055;-76
2022/04/16 04:11:17;;;;;;;5.70;2.05;;;;;;;3.17;100.00;102490.66;5214242;28;20029;-76
2022/04/16 04:13:48;;;;;;;3.47;1.90;;;;;;;3.23;100.00;102497.69;5209705;28;20036;-77
2022/04/16 04:16:19;;;;;;;5.03;2.08;;;;;;;3.11;100.00;102507.72;5205309;28;20053;-77
2022/04/16 04:18:49;;;;;;;3.92;1.83;;;;;;;2.96;100.00;102509.91;5211101;28;20064;-76
2022/04/16 04:21:20;;;;;;;3.72;1.90;;;;;;;3.11;100.00;102515.47;5214206;28;20676;-75
2022/04/16 04:23:50;;;;;;;3.78;1.73;;;;;;;2.95;100.00;102516.78;5210924;28;20430;-76
2022/04/16 04:26:20;;;;;;;6.78;2.20;;;;;;;2.95;100.00;102523.63;5215111;28;20033;-76
2022/04/16 04:28:50;;;;;;;4.05;2.10;;;;;;;2.96;100.00;102515.06;5210851;28;20087;-76
2022/04/16 04:31:20;;;;;;;4.95;2.10;;;;;;;3.03;100.00;102523.00;5205079;28;20052;-76
2022/04/16 04:33:51;;;;;;;4.57;2.10;;;;;;;3.12;100.00;102527.53;5212629;28;20056;-77
2022/04/16 04:36:21;;;;;;;7.22;2.38;;;;;;;3.17;100.00;102520.81;5214335;28;20376;-76
2022/04/16 04:38:51;;;;;;;4.97;2.20;;;;;;;3.24;100.00;102522.69;5210595;28;20423;-75
2022/04/16 04:41:21;;;;;;;4.90;1.90;;;;;;;3.42;100.00;102520.56;5214079;28;20382;-76
2022/04/16 04:43:52;;;;;;;3.75;2.10;;;;;;;3.66;100.00;102515.16;5210315;28;20360;-76
2022/04/16 04:46:22;;;;;;;4.55;1.92;;;;;;;3.76;100.00;102504.16;5210324;28;20021;-76
2022/04/16 04:48:52;;;;;;;4.72;2.15;;;;;;;3.71;100.00;102521.28;5214132;28;20031;-77
2022/04/16 04:51:22;;;;;;;3.70;1.80;;;;;;;3.76;100.00;102511.06;5209830;28;20061;-77
2022/04/16 04:53:53;;;;;;;4.40;1.83;;;;;;;3.66;100.00;102520.31;5214162;28;20031;-76
2022/04/16 04:56:23;;;;;;;5.47;2.15;;;;;;;3.86;100.00;102524.22;5210831;28;20025;-76
2022/04/16 04:58:53;;;;;;;5.85;2.30;;;;;;;3.63;100.00;102533.16;5213942;28;20044;-76
2022/04/16 05:01:24;;;;;;;5.25;2.00;;;;;;;4.00;100.00;102521.94;5210108;28;20502;-76
2022/04/16 05:03:54;;;;;;;4.25;2.20;;;;;;;4.15;100.00;102536.06;5212021;28;20364;-76
2022/04/16 05:06:25;;;;;;;5.38;2.20;;;;;;;4.26;100.00;102537.19;5213160;28;20051;-76
2022/04/16 05:08:55;;;;;;;4.65;2.13;;;;;;;4.22;98.91;102545.72;5209959;28;20045;-76
2022/04/16 05:11:25;;;;;;;2.90;1.80;;;;;;;4.65;99.51;102540.56;5212775;28;20048;-76
2022/04/16 05:13:55;;;;;;;7.85;2.20;;;;;;;4.98;97.25;102545.53;5210603;28;20035;-75
2022/04/16 05:16:26;;;;;;;3.53;1.73;;;;;;;4.91;95.62;102552.31;5210002;28;20483;-76
2022/04/16 05:18:56;;;;;;;6.57;1.80;;;;;;;5.00;97.33;102551.63;5213717;28;20363;-76
2022/04/16 05:21:26;;;;;;;4.85;1.85;;;;;;;5.26;93.43;102551.25;5209857;28;20445;-77
2022/04/16 05:23:56;;;;;;;4.78;1.73;;;;;;;7.45;85.87;102545.53;5212972;28;20108;-76
2022/04/16 05:26:27;;;;;;;3.25;1.60;;;;;;;8.54;79.19;102550.63;5210688;28;20021;-76
2022/04/16 05:28:57;;;;;;;1.88;1.10;;;;;;;10.49;74.54;102548.13;5208956;28;20025;-77
2022/04/16 05:31:30;;;;;;;1.92;1.20;;;;;;;11.43;70.19;102548.41;5212470;28;20029;-76
2022/04/16 05:34:19;;;;;;;2.45;1.20;;;;;;;13.33;60.09;102534.88;5213424;28;20029;-76
2022/04/16 05:36:50;;;;;;;4.03;1.20;;;;;;;11.61;64.54;102540.44;5194726;28;20025;-76
2022/04/16 05:39:20;;;;;;;3.35;1.13;;;;;;;12.85;62.17;102553.94;5216123;28;20048;-77
2022/04/16 05:41:50;;;;;;;2.60;1.08;;;;;;;12.43;61.97;102551.84;5214122;28;20043;-76
2022/04/16 05:44:21;;;;;;;3.47;1.50;;;;;;;12.21;61.60;102557.34;5208170;28;20090;-76
2022/04/16 05:46:51;;;;;;;2.03;1.27;;;;;;;9.53;71.18;102571.72;5215576;28;20052;-77
2022/04/16 05:49:21;;;;;;;4.20;1.50;;;;;;;8.36;73.77;102579.19;5211886;28;20283;-77
2022/04/16 05:51:51;;;;;;;3.70;1.55;;;;;;;8.02;75.80;102572.00;5213968;28;20290;-76
2022/04/16 05:54:22;;;;;;;4.15;1.48;;;;;;;6.44;84.22;102593.78;5209658;28;20494;-76
2022/04/16 05:56:52;;;;;;;4.68;1.20;;;;;;;6.57;82.52;102595.72;5190530;28;20052;-76
2022/04/16 05:59:23;;;;;;;5.07;1.60;;;;;;;5.68;88.91;102601.22;5210853;28;20385;-76
2022/04/16 06:01:53;;;;;;;5.00;1.70;;;;;;;5.83;88.76;102596.31;5207861;28;20083;-74
2022/04/16 06:04:23;;;;;;;4.18;1.70;;;;;;;5.86;87.65;102609.34;5203415;28;20035;-77
2022/04/16 06:06:54;;;;;;;3.33;1.70;;;;;;;5.23;92.10;102613.41;5192600;28;20474;-75
2022/04/16 06:09:24;;;;;;;4.25;1.60;;;;;;;5.01;94.73;102605.19;5209547;28;20048;-76
2022/04/16 06:12:02;;;;;;;5.40;1.40;;;;;;;5.01;96.21;102616.41;5205845;28;20044;-76
2022/04/16 06:14:32;;;;;;;4.57;1.40;;;;;;;4.80;95.34;102621.16;5210403;28;20492;-74
2022/04/16 06:17:03;;;;;;;3.97;1.70;;;;;;;4.97;96.14;102619.78;5210040;28;20032;-76
2022/04/16 06:19:33;;;;;;;5.53;1.67;;;;;;;4.98;97.12;102625.88;5209344;28;20025;-76
2022/04/16 06:22:04;;;;;;;5.07;1.70;;;;;;;4.90;96.63;102632.59;5209998;28;20029;-76
2022/04/16 06:24:34;;;;;;;5.00;1.60;;;;;;;4.97;97.24;102643.13;5211138;28;20494;-76
2022/04/16 06:27:05;;;;;;;6.45;1.45;;;;;;;5.07;97.05;102632.09;5213355;28;20396;-75
2022/04/16 06:29:35;;;;;;;5.38;1.50;;;;;;;5.09;95.42;102633.00;5212266;28;20033;-77
2022/04/16 06:32:06;;;;;;;6.28;1.40;;;;;;;5.11;95.30;102633.91;5196332;28;20136;-77
2022/04/16 06:34:36;;;;;;;5.65;1.35;;;;;;;5.28;95.34;102632.50;5194702;28;20025;-77
2022/04/16 06:37:07;;;;;;;4.30;1.40;;;;;;;5.88;92.19;102638.81;5209665;28;20124;-77
2022/04/16 06:39:38;;;;;;;8.30;1.38;;;;;;;7.99;84.20;102624.06;5217240;28;20036;-78
2022/04/16 06:42:08;;;;;;;3.40;1.10;;;;;;;9.60;77.29;102623.06;5205831;28;20446;-77
2022/04/16 06:44:38;;;;;;;2.30;0.95;;;;;;;10.69;71.24;102612.50;5201321;28;20029;-78
2022/04/16 06:47:08;;;;;;;1.92;0.80;;;;;;;11.12;69.22;102612.31;5219846;28;20025;-78
2022/04/16 06:49:39;;;;;;;3.27;0.90;;;;;;;11.18;67.35;102614.03;5218498;28;20021;-77
2022/04/16 06:52:09;;;;;;;4.85;1.10;;;;;;;11.57;67.73;102612.06;5222599;28;20271;-77
2022/04/16 06:54:43;;;;;;;3.67;1.02;;;;;;;11.92;66.65;102602.19;5218663;28;20030;-77
2022/04/16 06:57:14;;;;;;;2.22;0.82;;;;;;;12.24;64.87;102612.38;5182454;28;20048;-77
2022/04/16 06:59:44;;;;;;;2.63;0.90;;;;;;;11.81;67.52;102611.88;5217839;28;20067;-77
2022/04/16 07:02:14;;;;;;;1.77;0.80;;;;;;;12.23;65.01;102601.03;5209141;28;20280;-78
2022/04/16 07:04:44;;;;;;;4.43;1.10;;;;;;;12.68;64.67;102595.28;5211992;28;20088;-78
2022/04/16 07:07:15;;;;;;;2.83;0.90;;;;;;;12.02;65.74;102602.97;5213772;28;20070;-76
2022/04/16 07:09:45;;;;;;;2.92;0.85;;;;;;;11.98;65.98;102603.91;5215388;28;20017;-77
2022/04/16 07:12:15;;;;;;;1.73;0.60;;;;;;;13.34;62.73;102594.41;5213136;28;20029;-77
2022/04/16 07:14:46;;;;;;;3.35;0.90;;;;;;;13.19;62.81;102599.88;5211744;28;20283;-78
2022/04/16 07:17:16;;;;;;;3.47;1.00;;;;;;;13.11;61.40;102600.00;5215919;28;20040;-78
2022/04/16 07:19:46;;;;;;;2.13;0.70;;;;;;;15.46;57.17;102590.34;5192092;28;20021;-78
2022/04/16 07:22:20;;;;;;;3.40;0.90;;;;;;;13.03;62.34;102601.00;5208406;28;20090;-77
2022/04/16 07:24:51;;;;;;;2.55;0.95;;;;;;;14.05;59.61;102594.13;5215391;28;20021;-76
2022/04/16 07:27:21;;;;;;;2.80;0.93;;;;;;;14.64;59.19;102593.91;5213032;28;20028;-78
2022/04/16 07:29:58;;;;;;;2.42;0.75;;;;;;;13.46;61.66;102599.47;5195053;28;20108;-78
2022/04/16 07:32:31;;;;;;;2.40;0.65;;;;;;;13.92;58.81;102601.34;5208585;28;20099;-76
2022/04/16 07:35:03;;;;;;;3.05;1.10;;;;;;;13.20;60.95;102601.63;5210280;28;20029;-77
2022/04/16 07:37:33;;;;;;;3.63;0.90;;;;;;;13.69;59.27;102605.22;5223177;28;20024;-78
2022/04/16 07:40:04;;;;;;;2.70;0.85;;;;;;;13.82;59.29;102593.63;5226160;28;20033;-77
2022/04/16 07:42:34;;;;;;;3.22;0.80;;;;;;;13.13;61.67;102611.34;5219412;28;20068;-78
2022/04/16 07:45:06;;;;;;;1.60;0.70;;;;;;;13.70;60.75;102601.72;5222421;28;20033;-77
2022/04/16 07:47:36;;;;;;;2.95;0.80;;;;;;;14.24;60.84;102599.06;5221833;28;20032;-77
2022/04/16 07:50:07;;;;;;;4.07;0.90;;;;;;;13.43;62.05;102607.41;5213118;28;20033;-77
2022/04/16 07:52:37;;;;;;;3.70;1.00;;;;;;;12.38;61.04;102615.72;5210977;28;20276;-77
2022/04/16 07:55:08;;;;;;;3.53;0.70;;;;;;;12.14;64.24;102618.59;5215901;28;20037;-76
2022/04/16 07:57:38;;;;;;;2.30;0.70;;;;;;;13.74;60.03;102619.19;5219274;28;20271;-77
2022/04/16 08:00:10;;;;;;;2.63;0.57;;;;;;;14.15;59.06;102614.09;5220520;28;20040;-76
2022/04/16 08:02:40;;;;;;;1.52;0.77;;;;;;;15.61;55.54;102611.06;5214346;28;20032;-77
2022/04/16 08:05:11;;;;;;;3.15;0.70;;;;;;;13.93;58.33;102620.63;5218201;28;20104;-77
2022/04/16 08:07:41;;;;;;;3.55;0.98;;;;;;;13.28;59.06;102621.66;5222051;28;20102;-78
2022/04/16 08:10:12;;;;;;;4.17;1.20;;;;;;;14.14;57.87;102623.78;5199129;28;20025;-79
2022/04/16 08:12:42;;;;;;;2.30;0.82;;;;;;;12.35;59.41;102632.38;5219160;28;20283;-79
2022/04/16 08:15:12;;;;;;;3.70;0.98;;;;;;;10.90;61.96;102640.34;5199649;28;20029;-78
2022/04/16 08:17:43;;;;;;;3.00;1.10;;;;;;;11.16;64.05;102642.84;5218640;28;20101;-78
2022/04/16 08:20:13;;;;;;;2.42;0.77;;;;;;;12.08;61.68;102630.00;5199043;28;20220;-78
2022/04/16 08:22:46;;;;;;;2.55;0.80;;;;;;;11.97;61.66;102634.47;5219224;28;20043;-78
2022/04/16 08:27:51;;;;;;;4.38;0.90;;;;;;;13.20;60.15;102628.75;5219169;28;20028;-78
2022/04/16 08:30:22;;;;;;;1.63;0.73;;;;;;;11.25;63.68;102632.31;5190126;28;20542;-78
2022/04/16 08:32:52;;;;;;;1.88;0.70;;;;;;;12.43;61.62;102633.16;5209482;28;20043;-79
2022/04/16 08:35:22;;;;;;;2.47;0.80;;;;;;;12.89;60.76;102629.13;5218695;28;20082;-79
2022/04/16 08:37:53;;;;;;;2.55;0.77;;;;;;;12.26;60.03;102618.50;5215127;28;20272;-80
2022/04/16 08:40:23;;;;;;;3.45;0.80;;;;;;;12.24;61.55;102621.13;5218358;28;20021;-78
2022/04/16 08:42:53;;;;;;;1.95;0.70;;;;;;;13.58;60.02;102625.56;5208263;28;20479;-77
2022/04/16 08:45:24;;;;;;;1.83;0.70;;;;;;;13.44;58.30;102624.91;5215973;28;20036;-79
2022/04/16 08:47:55;;;;;;;1.65;0.70;;;;;;;13.72;59.35;102618.34;5215230;28;20041;-79
2022/04/16 08:50:25;;;;;;;0.77;0.50;;;;;;;15.07;58.20;102625.47;5217054;28;20036;-79
2022/04/16 08:52:57;;;;;;;4.07;0.93;;;;;;;13.48;59.64;102635.34;5213771;28;20029;-78
2022/04/16 08:55:28;;;;;;;3.15;0.70;;;;;;;14.59;58.58;102635.25;5216632;28;20029;-79
2022/04/16 08:57:59;;;;;;;1.73;0.80;;;;;;;14.16;58.16;102637.78;5214201;28;20112;-79
2022/04/16 09:00:29;;;;;;;4.18;0.88;;;;;;;15.25;56.47;102635.59;5213297;28;20159;-80
2022/04/16 09:03:04;;;;;;;2.38;0.73;;;;;;;15.62;54.38;102612.81;5206526;28;20204;-78
2022/04/16 09:05:35;;;;;;;1.23;0.65;;;;;;;14.56;56.86;102627.41;5213255;28;20326;-79
2022/04/16 09:08:05;;;;;;;2.47;0.90;;;;;;;12.88;60.44;102636.13;5214520;28;20033;-79
2022/04/16 09:10:36;;;;;;;3.17;0.88;;;;;;;12.80;62.08;102634.47;5214778;28;20028;-77
2022/04/16 09:13:06;;;;;;;1.90;0.75;;;;;;;13.43;60.24;102642.41;5219342;28;20038;-78
2022/04/16 09:15:37;;;;;;;1.95;0.70;;;;;;;14.05;58.37;102636.22;5218087;28;20372;-78
2022/04/16 09:18:08;;;;;;;2.78;0.82;;;;;;;13.48;58.71;102629.22;5219478;28;20730;-78
2022/04/16 09:20:39;;;;;;;2.88;0.90;;;;;;;14.43;56.20;102625.91;5219443;28;20024;-76
2022/04/16 09:23:21;;;;;;;2.10;0.70;;;;;;;15.31;55.12;102622.31;5219713;28;20029;-78
2022/04/16 09:25:51;;;;;;;3.05;0.85;;;;;;;12.90;58.02;102634.34;5212407;28;20045;-77
2022/04/16 09:28:21;;;;;;;3.15;0.70;;;;;;;12.65;58.42;102631.19;5196457;28;20055;-77
2022/04/16 09:30:56;;;;;;;1.58;0.47;;;;;;;12.10;62.66;102633.47;5216415;28;20105;-79
2022/04/16 09:33:37;;;;;;;0.93;0.60;;;;;;;11.69;61.32;102637.31;5219827;28;20662;-77
2022/04/16 09:36:07;;;;;;;1.23;0.50;;;;;;;10.45;64.21;102658.78;5218326;28;20026;-78
2022/04/16 09:38:42;;;;;;;2.42;0.70;;;;;;;10.46;64.34;102650.94;5216729;28;20409;-77
2022/04/16 09:41:14;;;;;;;2.28;0.80;;;;;;;10.41;66.87;102649.19;5218193;28;20071;-77
2022/04/16 09:43:44;;;;;;;1.92;0.88;;;;;;;10.63;66.00;102645.66;5215891;28;20037;-78
2022/04/16 09:46:14;;;;;;;1.90;0.70;;;;;;;11.32;65.82;102636.66;5212271;28;20410;-78
2022/04/16 09:48:45;;;;;;;2.30;0.70;;;;;;;11.19;66.62;102648.06;5214591;28;20279;-76
2022/04/16 09:51:18;;;;;;;1.48;0.70;;;;;;;10.58;67.88;102652.66;5214023;28;20319;-76
2022/04/16 09:53:51;;;;;;;1.42;0.70;;;;;;;11.20;64.30;102644.56;5219434;28;20052;-78
2022/04/16 09:56:27;;;;;;;2.65;0.80;;;;;;;11.45;66.44;102643.53;5210931;28;20390;-77
2022/04/16 09:59:00;;;;;;;2.83;0.85;;;;;;;11.30;64.84;102653.25;5215778;28;20033;-77
2022/04/16 10:01:32;;;;;;;2.00;0.52;;;;;;;10.08;65.58;102660.56;5211940;28;20017;-76
2022/04/16 10:04:02;;;;;;;2.88;0.60;;;;;;;10.81;63.33;102645.59;5208727;28;20098;-79
2022/04/16 10:06:34;;;;;;;3.38;0.60;;;;;;;10.40;64.27;102650.06;5212474;28;20029;-78
2022/04/16 10:09:13;;;;;;;1.67;0.57;;;;;;;10.75;64.45;102641.28;5211250;28;20025;-77
2022/04/16 10:14:37;;;;;;;1.13;0.52;;;;;;;10.54;63.88;102656.16;5212965;28;20040;-78
2022/04/16 10:17:25;;;;;;;3.40;0.80;;;;;;;10.37;63.80;102647.47;5209110;28;20041;-75
2022/04/16 10:20:07;;;;;;;1.85;0.73;;;;;;;11.01;63.98;102638.56;5215337;28;20018;-76
2022/04/16 10:22:38;;;;;;;1.75;0.70;;;;;;;10.03;66.13;102649.22;5214829;28;20021;-76
2022/04/16 10:25:09;;;;;;;1.65;0.60;;;;;;;11.00;66.60;102631.59;5218248;28;20333;-75
2022/04/16 10:27:42;;;;;;;1.20;0.55;;;;;;;11.09;65.19;102635.88;5220135;28;20056;-76
2022/04/16 10:30:13;;;;;;;1.88;0.68;;;;;;;10.84;64.22;102632.53;5218611;28;20083;-76
2022/04/16 10:32:45;;;;;;;1.88;0.65;;;;;;;10.96;62.28;102625.50;5218080;28;20029;-76
2022/04/16 10:35:17;;;;;;;1.05;0.57;;;;;;;11.24;62.31;102640.19;5220804;28;20024;-75
2022/04/16 10:37:54;;;;;;;1.23;0.50;;;;;;;11.12;59.36;102638.50;5218331;28;20044;-76
2022/04/16 10:40:25;;;;;;;1.33;0.60;;;;;;;11.30;62.16;102642.78;5215362;28;20029;-76
2022/04/16 10:43:00;;;;;;;1.10;0.55;;;;;;;10.96;61.93;102645.53;5215701;28;20044;-76
2022/04/16 10:45:34;;;;;;;1.08;0.40;;;;;;;10.88;60.40;102639.50;5216967;28;20036;-77
2022/04/16 10:48:07;;;;;;;1.40;0.60;;;;;;;11.02;62.70;102631.56;5219348;28;20128;-77
2022/04/16 10:50:38;;;;;;;2.95;0.73;;;;;;;11.04;62.96;102634.16;5220204;28;20522;-77
2022/04/16 10:53:08;;;;;;;1.73;0.50;;;;;;;11.18;62.13;102627.13;5217523;28;20044;-75
2022/04/16 10:55:48;;;;;;;8.27;1.00;;;;;;;11.00;60.34;102615.91;5220222;28;20025;-76
2022/04/16 10:58:26;;;;;;;0.95;0.47;;;;;;;11.09;60.54;102620.19;5222348;28;20032;-77
2022/04/16 11:01:09;;;;;;;1.98;0.60;;;;;;;10.78;60.88;102615.13;5215545;28;20028;-74
2022/04/16 11:03:47;;;;;;;2.78;0.65;;;;;;;10.82;60.94;102621.22;5218246;28;20078;-77
2022/04/16 11:06:18;;;;;;;1.33;0.50;;;;;;;10.40;59.02;102626.56;5220996;28;20355;-75
2022/04/16 11:08:48;;;;;;;2.42;0.70;;;;;;;10.43;58.88;102626.53;5216728;28;20250;-76
2022/04/16 11:11:19;;;;;;;2.63;0.65;;;;;;;10.95;59.67;102617.63;5221080;28;20056;-76
2022/04/16 11:13:50;;;;;;;1.48;0.57;;;;;;;10.94;60.66;102603.72;5208728;28;20044;-80
2022/04/16 11:16:22;;;;;;;2.67;0.77;;;;;;;10.94;62.16;102611.56;5189852;28;20024;-77
2022/04/16 11:18:52;;;;;;;39.92;13.35;;;;;;;11.16;60.72;102603.59;5219601;28;20037;-78
2022/04/16 11:21:26;;;;;;;4.15;1.50;;;;;;;11.02;60.77;102600.19;5214572;28;20031;-78
2022/04/16 11:24:05;;;;;;;0.95;0.50;;;;;;;11.25;61.01;102603.53;5206062;28;20051;-78
2022/04/16 11:35:03;;;;;;;1.27;0.60;;;;;;;10.48;60.38;102601.28;5206466;28;20502;-79
2022/04/16 11:37:34;;;;;;;1.45;0.70;;;;;;;10.63;61.64;102594.25;5215561;28;20045;-77
2022/04/16 11:40:08;;;;;;;1.38;0.47;;;;;;;10.83;61.60;102589.78;5197079;28;20459;-79
2022/04/16 11:42:38;;;;;;;1.05;0.50;;;;;;;11.00;65.06;102594.97;5197500;28;20018;-77
2022/04/16 11:45:10;;;;;;;3.33;0.65;;;;;;;11.36;61.36;102583.41;5219533;28;20052;-78
2022/04/16 11:47:40;;;;;;;1.70;0.70;;;;;;;11.44;60.75;102584.19;5219230;28;20059;-79
2022/04/16 11:50:11;;;;;;;1.27;0.52;;;;;;;11.07;60.60;102595.78;5219356;28;20041;-76
2022/04/16 11:52:50;;;;;;;2.60;0.50;;;;;;;11.33;59.77;102590.41;5216724;28;20024;-76
2022/04/16 11:55:20;;;;;;;0.90;0.40;;;;;;;11.24;58.05;102591.31;5217108;28;20039;-75
2022/04/16 11:57:54;;;;;;;2.15;0.50;;;;;;;11.35;60.02;102597.38;5216050;28;20073;-77
2022/04/16 12:00:26;;;;;;;1.75;0.60;;;;;;;11.24;57.94;102599.16;5218458;28;20041;-78
2022/04/16 12:02:57;;;;;;;1.92;0.47;;;;;;;11.30;54.28;102593.88;5206931;28;20104;-79
2022/04/16 12:05:28;;;;;;;1.08;0.50;;;;;;;11.55;57.76;102590.25;5199803;28;20139;-76
2022/04/16 12:07:59;;;;;;;2.72;0.50;;;;;;;11.45;56.01;102590.31;5219256;28;20047;-79